createdAt,value
2022-12-01T00:00:40.018Z,97659.59
2022-12-01T00:06:59.844Z,97647.94
2022-12-01T00:10:23.841Z,97651.00
2022-12-01T00:13:38.483Z,97648.88
2022-12-01T00:16:38.544Z,97642.78
2022-12-01T00:19:58.299Z,97650.00
2022-12-01T00:23:46.811Z,97643.06
2022-12-01T00:26:56.185Z,97640.56
2022-12-01T00:30:03.256Z,97637.22
2022-12-01T00:33:13.140Z,97641.66
2022-12-01T00:36:23.478Z,97653.72
2022-12-01T00:39:20.245Z,97643.72
2022-12-01T00:42:31.300Z,97660.66
2022-12-01T00:45:38.353Z,97649.25
2022-12-01T00:48:45.799Z,97664.38
2022-12-01T00:51:47.662Z,97646.03
2022-12-01T00:54:56.060Z,97649.78
2022-12-01T00:57:46.896Z,97649.06
2022-12-01T01:04:08.531Z,97667.09
2022-12-01T01:07:08.606Z,97650.31
2022-12-01T01:10:11.733Z,97645.19
2022-12-01T01:13:09.846Z,97646.13
2022-12-01T01:16:10.104Z,97644.63
2022-12-01T01:19:21.001Z,97652.50
2022-12-01T01:22:34.660Z,97659.44
2022-12-01T01:25:46.308Z,97658.59
2022-12-01T01:35:28.409Z,97656.47
2022-12-01T01:38:28.237Z,97658.97
2022-12-01T01:41:29.657Z,97657.72
2022-12-01T01:44:51.862Z,97665.91
2022-12-01T01:48:09.707Z,97657.00
2022-12-01T01:51:22.589Z,97653.53
2022-12-01T01:54:39.956Z,97663.66
2022-12-01T01:57:39.231Z,97650.47
2022-12-01T02:00:39.030Z,97664.63
2022-12-01T02:03:46.824Z,97646.53
2022-12-01T02:06:45.705Z,97643.09
2022-12-01T02:09:48.813Z,97645.72
2022-12-01T02:13:27.107Z,97656.56
2022-12-01T02:16:44.070Z,97656.69
2022-12-01T02:20:07.396Z,97653.22
2022-12-01T02:23:24.034Z,97655.25
2022-12-01T02:26:23.582Z,97652.63
2022-12-01T02:29:38.203Z,97654.56
2022-12-01T02:33:10.816Z,97646.22
2022-12-01T02:36:24.043Z,97635.28
2022-12-01T02:43:02.150Z,97637.19
2022-12-01T02:46:15.699Z,97646.38
2022-12-01T02:49:20.244Z,97631.22
2022-12-01T02:52:19.466Z,97621.78
2022-12-01T02:55:20.206Z,97636.25
2022-12-01T02:58:15.843Z,97626.47
2022-12-01T03:01:50.239Z,97641.50
2022-12-01T03:05:16.489Z,97633.97
2022-12-01T03:08:34.118Z,97637.13
2022-12-01T03:11:32.322Z,97649.63
2022-12-01T03:14:58.385Z,97646.19
2022-12-01T03:18:07.297Z,97631.16
2022-12-01T03:21:19.978Z,97647.13
2022-12-01T03:24:27.267Z,97641.56
2022-12-01T03:27:22.705Z,97635.00
2022-12-01T03:30:12.042Z,97647.50
2022-12-01T03:33:03.615Z,97638.78
2022-12-01T03:36:24.581Z,97639.88
2022-12-01T03:39:24.548Z,97606.59
2022-12-01T03:42:31.833Z,97623.53
2022-12-01T03:45:56.506Z,97606.03
2022-12-01T03:48:54.243Z,97605.34
2022-12-01T03:52:06.806Z,97617.00
2022-12-01T03:55:31.604Z,97611.41
2022-12-01T03:58:44.721Z,97607.97
2022-12-01T04:01:46.173Z,97611.41
2022-12-01T04:04:45.817Z,97624.06
2022-12-01T04:07:58.299Z,97615.84
2022-12-01T04:11:02.972Z,97626.69
2022-12-01T04:13:57.407Z,97619.16
2022-12-01T04:16:55.951Z,97611.66
2022-12-01T04:20:00.147Z,97613.47
2022-12-01T04:22:55.029Z,97620.38
2022-12-01T04:32:20.768Z,97639.13
2022-12-01T04:35:16.801Z,97629.56
2022-12-01T04:38:37.044Z,97620.38
2022-12-01T04:41:58.097Z,97620.38
2022-12-01T04:44:57.309Z,97621.34
2022-12-01T04:48:04.528Z,97629.56
2022-12-01T04:50:54.779Z,97620.53
2022-12-01T04:53:55.432Z,97619.94
2022-12-01T04:56:58.189Z,97615.66
2022-12-01T04:59:51.346Z,97618.28
2022-12-01T05:02:50.385Z,97624.63
2022-12-01T05:05:38.224Z,97629.97
2022-12-01T05:08:36.807Z,97617.72
2022-12-01T05:11:35.390Z,97637.13
2022-12-01T05:14:27.595Z,97623.41
2022-12-01T05:17:23.255Z,97616.97
2022-12-01T05:20:58.376Z,97628.66
2022-12-01T05:23:58.633Z,97635.81
2022-12-01T05:27:18.416Z,97617.38
2022-12-01T05:30:30.822Z,97635.13
2022-12-01T05:33:26.908Z,97630.03
2022-12-01T05:36:26.375Z,97622.88
2022-12-01T05:39:16.016Z,97633.81
2022-12-01T05:42:06.066Z,97627.75
2022-12-01T05:44:58.929Z,97633.00
2022-12-01T05:47:50.577Z,97628.00
2022-12-01T05:50:49.407Z,97623.25
2022-12-01T05:53:43.688Z,97630.91
2022-12-01T05:56:34.222Z,97631.84
2022-12-01T05:59:30.888Z,97625.16
2022-12-01T06:02:27.113Z,97629.34
2022-12-01T06:05:14.001Z,97641.41
2022-12-01T06:08:00.807Z,97633.88
2022-12-01T06:10:47.688Z,97639.03
2022-12-01T06:13:34.459Z,97634.84
2022-12-01T06:16:21.374Z,97642.88
2022-12-01T06:19:08.208Z,97632.47
2022-12-01T06:21:54.990Z,97633.28
2022-12-01T06:24:41.748Z,97635.22
2022-12-01T06:27:28.532Z,97634.50
2022-12-01T06:30:15.372Z,97633.81
2022-12-01T06:33:02.167Z,97639.06
2022-12-01T06:35:49.009Z,97636.56
2022-12-01T06:38:36.485Z,97639.19
2022-12-01T06:41:23.263Z,97636.94
2022-12-01T06:44:13.368Z,97643.97
2022-12-01T06:47:00.176Z,97646.84
2022-12-01T06:49:47.380Z,97647.81
2022-12-01T06:52:35.021Z,97655.56
2022-12-01T06:55:21.899Z,97648.75
2022-12-01T06:58:08.924Z,97646.13
2022-12-01T07:00:57.363Z,97649.63
2022-12-01T07:03:48.103Z,97653.19
2022-12-01T07:06:34.873Z,97652.47
2022-12-01T07:09:21.714Z,97645.69
2022-12-01T07:12:11.390Z,97657.00
2022-12-01T07:15:02.729Z,97651.06
2022-12-01T07:17:49.608Z,97648.53
2022-12-01T07:20:36.366Z,97655.59
2022-12-01T07:23:23.390Z,97657.50
2022-12-01T07:26:18.441Z,97659.28
2022-12-01T07:29:05.311Z,97662.06
2022-12-01T07:31:52.117Z,97663.03
2022-12-01T07:34:41.203Z,97659.81
2022-12-01T07:37:27.993Z,97668.50
2022-12-01T07:40:14.784Z,97671.13
2022-12-01T07:43:01.654Z,97656.59
2022-12-01T07:45:49.360Z,97668.84
2022-12-01T07:48:37.282Z,97668.03
2022-12-01T07:51:25.201Z,97669.94
2022-12-01T07:54:14.281Z,97666.75
2022-12-01T07:57:01.291Z,97676.28
2022-12-01T07:59:48.368Z,97667.56
2022-12-01T08:02:35.533Z,97669.38
2022-12-01T08:05:22.478Z,97672.47
2022-12-01T08:08:36.449Z,97670.56
2022-12-01T08:11:26.056Z,97664.97
2022-12-01T08:14:12.867Z,97665.19
2022-12-01T08:16:59.641Z,97673.78
2022-12-01T08:19:46.597Z,97672.56
2022-12-01T08:22:36.362Z,97674.38
2022-12-01T08:25:23.138Z,97670.88
2022-12-01T08:28:10.159Z,97678.06
2022-12-01T08:30:57.044Z,97670.31
2022-12-01T08:33:44.273Z,97686.91
2022-12-01T08:36:31.134Z,97675.09
2022-12-01T08:39:17.940Z,97682.00
2022-12-01T08:42:04.829Z,97686.56
2022-12-01T08:44:51.800Z,97686.56
2022-12-01T08:47:38.599Z,97688.09
2022-12-01T08:50:28.820Z,97686.66
2022-12-01T08:53:19.035Z,97684.03
2022-12-01T08:56:24.400Z,97683.78
2022-12-01T08:59:11.306Z,97681.31
2022-12-01T09:02:00.453Z,97689.78
2022-12-01T09:04:51.028Z,97690.72
2022-12-01T09:07:40.736Z,97692.25
2022-12-01T09:10:30.792Z,97684.75
2022-12-01T09:13:20.884Z,97682.84
2022-12-01T09:19:22.139Z,97686.31
2022-12-01T09:22:16.347Z,97685.22
2022-12-01T09:25:03.685Z,97671.41
2022-12-01T09:27:50.581Z,97697.63
2022-12-01T09:30:42.574Z,97693.06
2022-12-01T09:33:30.017Z,97675.91
2022-12-01T09:36:32.292Z,97680.81
2022-12-01T09:39:21.760Z,97677.81
2022-12-01T09:42:15.466Z,97692.56
2022-12-01T09:45:04.345Z,97683.47
2022-12-01T09:47:54.375Z,97687.53
2022-12-01T09:50:43.600Z,97684.84
2022-12-01T09:53:36.144Z,97683.72
2022-12-01T09:56:28.976Z,97688.09
2022-12-01T09:59:35.956Z,97679.31
2022-12-01T10:02:35.805Z,97675.34
2022-12-01T10:05:51.231Z,97678.06
2022-12-01T10:09:06.140Z,97671.19
2022-12-01T10:11:58.794Z,97660.53
2022-12-01T10:14:49.597Z,97664.88
2022-12-01T10:17:49.593Z,97664.13
2022-12-01T10:20:55.055Z,97658.19
2022-12-01T10:23:51.405Z,97651.59
2022-12-01T10:27:03.992Z,97646.75
2022-12-01T10:30:18.629Z,97646.59
2022-12-01T10:33:27.637Z,97645.66
2022-12-01T10:36:23.077Z,97641.34
2022-12-01T10:39:24.667Z,97635.41
2022-12-01T10:42:35.039Z,97634.69
2022-12-01T10:45:26.849Z,97634.00
2022-12-01T10:48:35.571Z,97639.13
2022-12-01T10:51:29.462Z,97637.31
2022-12-01T10:54:19.640Z,97626.38
2022-12-01T10:57:17.449Z,97622.66
2022-12-01T11:00:25.468Z,97630.78
2022-12-01T11:03:23.362Z,97619.56
2022-12-01T11:06:13.703Z,97630.25
2022-12-01T11:09:25.804Z,97618.47
2022-12-01T11:12:27.174Z,97616.66
2022-12-01T11:15:36.657Z,97617.94
2022-12-01T11:18:40.878Z,97613.50
2022-12-01T11:21:28.456Z,97604.06
2022-12-01T11:24:33.749Z,97610.06
2022-12-01T11:27:23.681Z,97609.50
2022-12-01T11:30:26.675Z,97602.44
2022-12-01T11:33:19.167Z,97604.94
2022-12-01T11:36:16.140Z,97592.19
2022-12-01T11:39:07.268Z,97594.41
2022-12-01T11:42:01.061Z,97593.72
2022-12-01T11:44:55.961Z,97587.75
2022-12-01T11:48:03.628Z,97606.19
2022-12-01T11:51:05.371Z,97595.09
2022-12-01T11:54:17.828Z,97585.56
2022-12-01T11:57:33.314Z,97576.97
2022-12-01T12:00:19.049Z,97592.47
2022-12-01T12:03:18.859Z,97592.09
2022-12-01T12:09:59.002Z,97583.47
2022-12-01T12:13:16.922Z,97592.38
2022-12-01T12:16:35.090Z,97596.53
2022-12-01T12:23:09.131Z,97581.47
2022-12-01T12:26:34.308Z,97582.91
2022-12-01T12:29:37.745Z,97574.84
2022-12-01T12:32:42.926Z,97580.69
2022-12-01T12:35:33.281Z,97578.03
2022-12-01T12:38:44.925Z,97569.44
2022-12-01T12:41:37.184Z,97569.72
2022-12-01T12:44:45.082Z,97571.25
2022-12-01T12:48:03.720Z,97566.78
2022-12-01T12:51:08.556Z,97569.69
2022-12-01T12:54:17.777Z,97565.94
2022-12-01T12:57:10.295Z,97577.44
2022-12-01T13:00:04.382Z,97579.25
2022-12-01T13:03:06.145Z,97576.19
2022-12-01T13:05:59.917Z,97567.28
2022-12-01T13:08:57.376Z,97571.31
2022-12-01T13:11:44.057Z,97567.28
2022-12-01T13:14:39.320Z,97557.84
2022-12-01T13:17:35.773Z,97559.75
2022-12-01T13:20:27.737Z,97560.44
2022-12-01T13:23:16.892Z,97564.75
2022-12-01T13:26:05.958Z,97556.66
2022-12-01T13:28:57.486Z,97562.66
2022-12-01T13:31:47.329Z,97555.56
2022-12-01T13:35:06.519Z,97551.00
2022-12-01T13:37:53.232Z,97542.25
2022-12-01T13:40:40.032Z,97555.44
2022-12-01T13:43:26.860Z,97548.47
2022-12-01T13:46:26.236Z,97558.91
2022-12-01T13:49:40.714Z,97551.81
2022-12-01T13:52:30.247Z,97544.72
2022-12-01T13:55:16.950Z,97544.56
2022-12-01T13:58:03.650Z,97547.91
2022-12-01T14:00:52.573Z,97541.94
2022-12-01T14:03:41.025Z,97552.19
2022-12-01T14:06:38.516Z,97554.84
2022-12-01T14:09:48.788Z,97551.22
2022-12-01T14:12:41.842Z,97554.00
2022-12-01T14:15:47.663Z,97545.94
2022-12-01T14:18:50.527Z,97550.09
2022-12-01T14:21:56.587Z,97555.38
2022-12-01T14:24:52.899Z,97543.00
2022-12-01T14:27:42.176Z,97544.00
2022-12-01T14:30:45.655Z,97538.56
2022-12-01T14:33:59.129Z,97549.13
2022-12-01T14:36:55.711Z,97540.66
2022-12-01T14:39:51.730Z,97551.63
2022-12-01T14:43:02.390Z,97559.38
2022-12-01T14:46:10.697Z,97552.84
2022-12-01T14:49:01.662Z,97547.72
2022-12-01T14:51:53.284Z,97553.16
2022-12-01T14:54:45.710Z,97546.06
2022-12-01T14:57:43.236Z,97558.28
2022-12-01T15:00:30.310Z,97557.56
2022-12-01T15:03:17.166Z,97539.41
2022-12-01T15:06:04.437Z,97553.69
2022-12-01T15:09:37.224Z,97558.13
2022-12-01T15:12:26.990Z,97556.34
2022-12-01T15:15:23.647Z,97558.13
2022-12-01T15:18:27.530Z,97545.78
2022-12-01T15:21:27.525Z,97547.44
2022-12-01T15:24:23.761Z,97542.97
2022-12-01T15:27:31.873Z,97539.34
2022-12-01T15:30:19.161Z,97546.31
2022-12-01T15:33:06.825Z,97538.69
2022-12-01T15:36:01.482Z,97547.44
2022-12-01T15:38:49.823Z,97547.44
2022-12-01T15:41:39.004Z,97544.78
2022-12-01T15:44:34.498Z,97539.63
2022-12-01T15:47:49.091Z,97539.81
2022-12-01T15:50:46.194Z,97543.25
2022-12-01T15:53:40.127Z,97542.44
2022-12-01T15:56:30.143Z,97534.81
2022-12-01T15:59:37.379Z,97536.34
2022-12-01T16:02:32.628Z,97535.50
2022-12-01T16:05:23.920Z,97528.53
2022-12-01T16:08:31.699Z,97531.06
2022-12-01T16:11:20.363Z,97538.97
2022-12-01T16:14:22.107Z,97527.59
2022-12-01T16:17:09.121Z,97533.69
2022-12-01T16:20:16.952Z,97531.88
2022-12-01T16:23:10.157Z,97539.81
2022-12-01T16:26:02.051Z,97537.16
2022-12-01T16:28:49.105Z,97543.25
2022-12-01T16:31:58.654Z,97539.97
2022-12-01T16:34:47.275Z,97535.50
2022-12-01T16:37:36.732Z,97532.16
2022-12-01T16:40:31.988Z,97539.09
2022-12-01T16:43:20.787Z,97539.09
2022-12-01T16:46:10.668Z,97541.75
2022-12-01T16:48:57.581Z,97544.53
2022-12-01T16:51:59.338Z,97547.88
2022-12-01T16:54:51.227Z,97550.81
2022-12-01T16:57:38.284Z,97554.28
2022-12-01T17:00:25.675Z,97556.75
2022-12-01T17:03:15.624Z,97554.28
2022-12-01T17:06:05.021Z,97556.06
2022-12-01T17:08:51.878Z,97556.06
2022-12-01T17:11:38.675Z,97562.03
2022-12-01T17:14:26.147Z,97557.91
2022-12-01T17:17:15.888Z,97552.75
2022-12-01T17:20:08.576Z,97553.44
2022-12-01T17:22:57.522Z,97556.91
2022-12-01T17:25:46.684Z,97557.03
2022-12-01T17:28:33.558Z,97559.66
2022-12-01T17:31:20.435Z,97559.00
2022-12-01T17:34:07.317Z,97550.38
2022-12-01T17:37:01.166Z,97569.69
2022-12-01T17:39:48.039Z,97558.31
2022-12-01T17:42:37.037Z,97567.19
2022-12-01T17:45:23.950Z,97574.13
2022-12-01T17:48:10.982Z,97566.38
2022-12-01T17:50:58.855Z,97573.31
2022-12-01T17:53:45.630Z,97574.97
2022-12-01T17:56:32.903Z,97570.53
2022-12-01T17:59:19.707Z,97580.13
2022-12-01T18:02:14.334Z,97579.41
2022-12-01T18:05:01.180Z,97581.09
2022-12-01T18:07:48.075Z,97579.28
2022-12-01T18:10:37.939Z,97576.78
2022-12-01T18:13:24.785Z,97571.66
2022-12-01T18:16:39.778Z,97573.59
2022-12-01T18:19:44.722Z,97566.81
2022-12-01T18:22:56.583Z,97575.56
2022-12-01T18:25:47.015Z,97572.22
2022-12-01T18:28:42.760Z,97564.59
2022-12-01T18:31:45.267Z,97575.69
2022-12-01T18:42:23.545Z,97573.50
2022-12-01T18:45:19.402Z,97577.78
2022-12-01T18:48:12.891Z,97574.91
2022-12-01T18:51:05.836Z,97580.41
2022-12-01T18:54:03.439Z,97581.28
2022-12-01T18:56:59.109Z,97560.84
2022-12-01T18:59:57.112Z,97572.94
2022-12-01T19:02:47.523Z,97569.47
2022-12-01T19:05:41.227Z,97560.84
2022-12-01T19:08:31.556Z,97570.47
2022-12-01T19:11:18.587Z,97561.03
2022-12-01T19:14:10.914Z,97560.84
2022-12-01T19:17:07.800Z,97576.13
2022-12-01T19:20:00.125Z,97568.50
2022-12-01T19:22:56.343Z,97561.41
2022-12-01T19:25:48.775Z,97557.41
2022-12-01T19:28:37.363Z,97578.09
2022-12-01T19:31:32.503Z,97572.13
2022-12-01T19:34:22.958Z,97560.19
2022-12-01T19:37:15.415Z,97560.31
2022-12-01T19:40:02.414Z,97565.47
2022-12-01T19:42:51.597Z,97569.91
2022-12-01T19:45:41.765Z,97575.03
2022-12-01T19:48:28.753Z,97575.31
2022-12-01T19:51:29.597Z,97574.78
2022-12-01T19:54:19.183Z,97575.59
2022-12-01T19:57:09.374Z,97572.00
2022-12-01T19:59:56.326Z,97574.50
2022-12-01T20:02:43.447Z,97588.94
2022-12-01T20:05:33.405Z,97589.88
2022-12-01T20:08:20.317Z,97581.13
2022-12-01T20:11:12.265Z,97578.66
2022-12-01T20:13:59.875Z,97577.13
2022-12-01T20:16:58.924Z,97587.56
2022-12-01T20:20:09.815Z,97579.91
2022-12-01T20:23:00.401Z,97584.75
2022-12-01T20:26:19.874Z,97587.25
2022-12-01T20:30:23.202Z,97594.03
2022-12-01T20:32:52.929Z,97583.94
2022-12-01T20:39:30.456Z,97580.75
2022-12-01T20:42:32.725Z,97580.19
2022-12-01T20:45:25.176Z,97591.69
2022-12-01T20:48:36.060Z,97577.13
2022-12-01T20:51:50.807Z,97594.34
2022-12-01T20:54:38.849Z,97579.09
2022-12-01T20:57:28.885Z,97568.13
2022-12-01T21:00:30.130Z,97577.69
2022-12-01T21:03:25.825Z,97577.41
2022-12-01T21:06:13.760Z,97588.94
2022-12-01T21:13:19.933Z,97575.09
2022-12-01T21:16:17.397Z,97581.19
2022-12-01T21:19:13.687Z,97587.44
2022-12-01T21:22:28.131Z,97584.66
2022-12-01T21:26:14.278Z,97573.00
2022-12-01T21:29:18.378Z,97580.91
2022-12-01T21:32:24.585Z,97582.84
2022-12-01T21:35:29.424Z,97574.66
2022-12-01T21:39:12.595Z,97583.00
2022-12-01T21:42:26.589Z,97569.00
2022-12-01T21:45:31.324Z,97585.91
2022-12-01T21:48:26.217Z,97580.09
2022-12-01T21:51:24.399Z,97579.28
2022-12-01T21:54:28.296Z,97579.13
2022-12-01T21:57:50.637Z,97576.09
2022-12-01T22:00:59.861Z,97575.09
2022-12-01T22:03:53.609Z,97561.78
2022-12-01T22:06:52.985Z,97554.00
2022-12-01T22:09:50.293Z,97562.34
2022-12-01T22:12:41.259Z,97552.09
2022-12-01T22:15:42.542Z,97560.38
2022-12-01T22:18:50.243Z,97545.00
2022-12-01T22:21:46.853Z,97560.53
2022-12-01T22:24:53.897Z,97564.00
2022-12-01T22:27:49.303Z,97557.19
2022-12-01T22:30:36.275Z,97563.03
2022-12-01T22:33:29.337Z,97561.38
2022-12-01T22:36:35.756Z,97568.44
2022-12-01T22:39:36.771Z,97559.72
2022-12-01T22:42:34.720Z,97560.69
2022-12-01T22:45:54.169Z,97561.53
2022-12-01T22:49:01.842Z,97539.31
2022-12-01T22:51:57.434Z,97533.34
2022-12-01T22:54:54.128Z,97545.97
2022-12-01T22:57:44.183Z,97530.88
2022-12-01T23:00:33.652Z,97527.66
2022-12-01T23:03:20.622Z,97532.09
2022-12-01T23:06:59.944Z,97536.97
2022-12-01T23:09:46.885Z,97529.72
2022-12-01T23:12:42.113Z,97511.97
2022-12-01T23:15:43.350Z,97511.28
2022-12-01T23:18:37.232Z,97499.63
2022-12-01T23:21:26.763Z,97515.88
2022-12-01T23:24:15.672Z,97517.66
2022-12-01T23:27:02.514Z,97511.69
2022-12-01T23:29:52.245Z,97509.91
2022-12-01T23:32:39.596Z,97519.75
2022-12-01T23:35:41.441Z,97508.53
2022-12-01T23:38:38.552Z,97503.91
2022-12-01T23:41:36.759Z,97493.69
2022-12-01T23:44:40.083Z,97496.88
2022-12-01T23:47:28.048Z,97493.09
2022-12-01T23:50:23.909Z,97494.78
2022-12-01T23:53:24.947Z,97474.09
2022-12-01T23:56:16.239Z,97478.69
2022-12-01T23:59:10.650Z,97478.25
